Terminal Aerodrome Forecast
Issued by NWS Missoula, MT

Home | Current Version | Previous Version | Text Only | Print | Product List | Glossary On
Versions: 1 2 3 4 5 6 7 8 9 10 11 12 13 14 15 16
515
FTUS45 KMSO 242331
TAFGPI
TAF
KGPI 242331Z 2500/2524 18005KT P6SM OVC050
     FM250900 19005KT 6SM -SN OVC040 WS020/26030KT
     FM251200 18007G14KT 2SM -SN OVC050
     FM252000 20012G22KT 4SM -SN OVC050=

USA.gov is the U.S. government's official web portal to all federal, state and local government web resources and services.